sensor_id;sensor_type;location;lat;lon;timestamp;temperature;humidity
48860;DHT22;34679;51.436;-2.518;2024-03-08T00:00:15;5.60;99.90
48860;DHT22;34679;51.436;-2.518;2024-03-08T00:02:47;5.60;99.90
48860;DHT22;34679;51.436;-2.518;2024-03-08T00:05:14;5.60;99.90
48860;DHT22;34679;51.436;-2.518;2024-03-08T00:07:41;5.60;99.90
48860;DHT22;34679;51.436;-2.518;2024-03-08T00:10:08;5.60;99.90
48860;DHT22;34679;51.436;-2.518;2024-03-08T00:12:42;5.70;99.90
48860;DHT22;34679;51.436;-2.518;2024-03-08T00:21:45;5.60;99.90
48860;DHT22;34679;51.436;-2.518;2024-03-08T00:24:11;5.60;99.90
48860;DHT22;34679;51.436;-2.518;2024-03-08T00:26:37;5.50;99.90
48860;DHT22;34679;51.436;-2.518;2024-03-08T00:29:03;5.60;99.90
48860;DHT22;34679;51.436;-2.518;2024-03-08T00:35:09;5.70;99.90
48860;DHT22;34679;51.436;-2.518;2024-03-08T00:37:35;5.50;99.90
48860;DHT22;34679;51.436;-2.518;2024-03-08T00:40:01;5.60;99.90
48860;DHT22;34679;51.436;-2.518;2024-03-08T00:42:26;5.60;99.90
48860;DHT22;34679;51.436;-2.518;2024-03-08T00:44:52;5.60;99.90
48860;DHT22;34679;51.436;-2.518;2024-03-08T00:47:18;5.60;99.90
48860;DHT22;34679;51.436;-2.518;2024-03-08T00:58:49;5.60;99.90
48860;DHT22;34679;51.436;-2.518;2024-03-08T01:01:15;5.60;99.90
48860;DHT22;34679;51.436;-2.518;2024-03-08T01:03:43;5.70;99.90
48860;DHT22;34679;51.436;-2.518;2024-03-08T01:06:09;5.60;99.90
48860;DHT22;34679;51.436;-2.518;2024-03-08T01:08:34;5.70;99.90
48860;DHT22;34679;51.436;-2.518;2024-03-08T01:11:06;5.60;99.90
48860;DHT22;34679;51.436;-2.518;2024-03-08T01:13:32;5.70;99.90
48860;DHT22;34679;51.436;-2.518;2024-03-08T01:15:57;5.60;99.90
48860;DHT22;34679;51.436;-2.518;2024-03-08T01:18:23;5.60;99.90
48860;DHT22;34679;51.436;-2.518;2024-03-08T01:20:49;5.60;99.90
48860;DHT22;34679;51.436;-2.518;2024-03-08T01:23:14;5.60;99.90
48860;DHT22;34679;51.436;-2.518;2024-03-08T01:25:40;5.60;99.90
48860;DHT22;34679;51.436;-2.518;2024-03-08T01:28:07;5.60;99.90
48860;DHT22;34679;51.436;-2.518;2024-03-08T01:30:32;5.60;99.90
48860;DHT22;34679;51.436;-2.518;2024-03-08T01:33:00;5.60;99.90
48860;DHT22;34679;51.436;-2.518;2024-03-08T01:35:26;5.20;99.90
48860;DHT22;34679;51.436;-2.518;2024-03-08T01:37:53;5.50;99.90
48860;DHT22;34679;51.436;-2.518;2024-03-08T01:40:18;5.50;99.90
48860;DHT22;34679;51.436;-2.518;2024-03-08T01:42:44;5.50;99.90
48860;DHT22;34679;51.436;-2.518;2024-03-08T01:45:10;5.50;99.90
48860;DHT22;34679;51.436;-2.518;2024-03-08T01:47:37;5.50;99.90
48860;DHT22;34679;51.436;-2.518;2024-03-08T01:53:27;5.40;99.90
48860;DHT22;34679;51.436;-2.518;2024-03-08T01:55:57;5.30;99.90
48860;DHT22;34679;51.436;-2.518;2024-03-08T01:58:24;5.20;99.90
48860;DHT22;34679;51.436;-2.518;2024-03-08T02:07:43;5.10;99.90
48860;DHT22;34679;51.436;-2.518;2024-03-08T02:10:12;5.00;99.90
48860;DHT22;34679;51.436;-2.518;2024-03-08T02:42:45;4.70;99.90
48860;DHT22;34679;51.436;-2.518;2024-03-08T02:45:11;4.70;99.90
48860;DHT22;34679;51.436;-2.518;2024-03-08T02:47:36;4.80;99.90
48860;DHT22;34679;51.436;-2.518;2024-03-08T02:50:02;4.80;99.90
48860;DHT22;34679;51.436;-2.518;2024-03-08T02:52:29;4.80;99.90
48860;DHT22;34679;51.436;-2.518;2024-03-08T02:54:54;4.80;99.90
48860;DHT22;34679;51.436;-2.518;2024-03-08T02:57:20;4.80;99.90
48860;DHT22;34679;51.436;-2.518;2024-03-08T02:59:46;4.80;99.90
48860;DHT22;34679;51.436;-2.518;2024-03-08T03:02:11;4.80;99.90
48860;DHT22;34679;51.436;-2.518;2024-03-08T03:04:40;4.90;99.90
48860;DHT22;34679;51.436;-2.518;2024-03-08T03:10:31;5.00;99.90
48860;DHT22;34679;51.436;-2.518;2024-03-08T03:23:30;5.00;99.90
48860;DHT22;34679;51.436;-2.518;2024-03-08T03:25:58;5.00;99.90
48860;DHT22;34679;51.436;-2.518;2024-03-08T03:28:25;5.10;99.90
48860;DHT22;34679;51.436;-2.518;2024-03-08T03:30:51;5.10;99.90
48860;DHT22;34679;51.436;-2.518;2024-03-08T03:33:18;5.00;99.90
48860;DHT22;34679;51.436;-2.518;2024-03-08T03:35:44;5.10;99.90
48860;DHT22;34679;51.436;-2.518;2024-03-08T03:38:09;5.10;99.90
48860;DHT22;34679;51.436;-2.518;2024-03-08T03:40:45;5.20;99.90
48860;DHT22;34679;51.436;-2.518;2024-03-08T03:43:17;5.20;99.90
48860;DHT22;34679;51.436;-2.518;2024-03-08T03:45:43;5.20;99.90
48860;DHT22;34679;51.436;-2.518;2024-03-08T03:48:09;5.30;99.90
48860;DHT22;34679;51.436;-2.518;2024-03-08T03:50:43;5.40;99.90
48860;DHT22;34679;51.436;-2.518;2024-03-08T03:53:10;5.30;99.90
48860;DHT22;34679;51.436;-2.518;2024-03-08T03:55:36;5.30;99.90
48860;DHT22;34679;51.436;-2.518;2024-03-08T03:58:04;3.90;99.90
48860;DHT22;34679;51.436;-2.518;2024-03-08T04:03:58;5.40;99.90
48860;DHT22;34679;51.436;-2.518;2024-03-08T04:06:27;5.40;99.90
48860;DHT22;34679;51.436;-2.518;2024-03-08T04:09:18;5.40;99.90
48860;DHT22;34679;51.436;-2.518;2024-03-08T04:11:59;5.50;99.90
48860;DHT22;34679;51.436;-2.518;2024-03-08T04:14:29;5.50;99.90
48860;DHT22;34679;51.436;-2.518;2024-03-08T04:23:35;5.60;99.90
48860;DHT22;34679;51.436;-2.518;2024-03-08T04:26:25;5.70;99.90
48860;DHT22;34679;51.436;-2.518;2024-03-08T04:28:51;5.80;99.90
48860;DHT22;34679;51.436;-2.518;2024-03-08T04:31:17;5.30;99.90
48860;DHT22;34679;51.436;-2.518;2024-03-08T04:33:52;5.80;99.90
48860;DHT22;34679;51.436;-2.518;2024-03-08T04:39:41;5.90;99.90
48860;DHT22;34679;51.436;-2.518;2024-03-08T04:42:07;5.80;99.90
48860;DHT22;34679;51.436;-2.518;2024-03-08T04:44:36;5.80;99.90
48860;DHT22;34679;51.436;-2.518;2024-03-08T04:47:03;5.80;99.90
48860;DHT22;34679;51.436;-2.518;2024-03-08T04:49:34;5.80;99.90
48860;DHT22;34679;51.436;-2.518;2024-03-08T04:52:19;5.80;99.90
48860;DHT22;34679;51.436;-2.518;2024-03-08T05:10:27;6.90;99.90
48860;DHT22;34679;51.436;-2.518;2024-03-08T05:12:53;5.80;99.90
48860;DHT22;34679;51.436;-2.518;2024-03-08T05:15:18;5.80;99.90
48860;DHT22;34679;51.436;-2.518;2024-03-08T05:17:46;5.80;99.90
48860;DHT22;34679;51.436;-2.518;2024-03-08T05:23:44;5.80;99.90
48860;DHT22;34679;51.436;-2.518;2024-03-08T05:27:24;5.80;99.90
48860;DHT22;34679;51.436;-2.518;2024-03-08T05:29:50;6.70;99.90
48860;DHT22;34679;51.436;-2.518;2024-03-08T05:32:16;5.00;99.90
48860;DHT22;34679;51.436;-2.518;2024-03-08T05:34:42;5.80;99.90
48860;DHT22;34679;51.436;-2.518;2024-03-08T05:37:08;5.80;99.90
48860;DHT22;34679;51.436;-2.518;2024-03-08T05:39:34;5.80;99.90
48860;DHT22;34679;51.436;-2.518;2024-03-08T05:41:59;5.70;99.90
48860;DHT22;34679;51.436;-2.518;2024-03-08T05:44:25;5.80;99.90
48860;DHT22;34679;51.436;-2.518;2024-03-08T05:46:54;5.80;99.90
48860;DHT22;34679;51.436;-2.518;2024-03-08T05:49:21;5.70;99.90
48860;DHT22;34679;51.436;-2.518;2024-03-08T05:51:57;5.70;99.90
48860;DHT22;34679;51.436;-2.518;2024-03-08T05:54:28;5.70;99.90
48860;DHT22;34679;51.436;-2.518;2024-03-08T05:56:55;5.20;99.90
48860;DHT22;34679;51.436;-2.518;2024-03-08T05:59:31;5.60;99.90
48860;DHT22;34679;51.436;-2.518;2024-03-08T06:02:03;5.90;99.90
48860;DHT22;34679;51.436;-2.518;2024-03-08T06:04:42;5.50;99.90
48860;DHT22;34679;51.436;-2.518;2024-03-08T06:10:45;5.50;99.90
48860;DHT22;34679;51.436;-2.518;2024-03-08T06:13:27;7.00;99.90
48860;DHT22;34679;51.436;-2.518;2024-03-08T06:15:59;5.60;99.90
48860;DHT22;34679;51.436;-2.518;2024-03-08T06:22:02;5.50;99.90
48860;DHT22;34679;51.436;-2.518;2024-03-08T06:24:46;5.50;99.90
48860;DHT22;34679;51.436;-2.518;2024-03-08T06:27:20;5.50;99.90
48860;DHT22;34679;51.436;-2.518;2024-03-08T06:30:09;5.40;99.90
48860;DHT22;34679;51.436;-2.518;2024-03-08T06:32:38;5.50;99.90
48860;DHT22;34679;51.436;-2.518;2024-03-08T06:35:11;5.50;99.90
48860;DHT22;34679;51.436;-2.518;2024-03-08T06:37:39;5.50;99.90
48860;DHT22;34679;51.436;-2.518;2024-03-08T06:40:06;5.50;99.90
48860;DHT22;34679;51.436;-2.518;2024-03-08T06:42:40;5.40;99.90
48860;DHT22;34679;51.436;-2.518;2024-03-08T06:48:32;5.40;99.90
48860;DHT22;34679;51.436;-2.518;2024-03-08T07:15:26;5.60;99.90
48860;DHT22;34679;51.436;-2.518;2024-03-08T07:17:56;5.90;99.90
48860;DHT22;34679;51.436;-2.518;2024-03-08T07:20:28;5.10;99.90
48860;DHT22;34679;51.436;-2.518;2024-03-08T07:22:57;6.40;99.90
48860;DHT22;34679;51.436;-2.518;2024-03-08T07:25:23;7.10;99.90
48860;DHT22;34679;51.436;-2.518;2024-03-08T07:31:17;6.90;99.90
48860;DHT22;34679;51.436;-2.518;2024-03-08T07:34:11;7.10;99.90
48860;DHT22;34679;51.436;-2.518;2024-03-08T07:36:37;7.20;99.90
48860;DHT22;34679;51.436;-2.518;2024-03-08T07:39:02;7.30;99.90
48860;DHT22;34679;51.436;-2.518;2024-03-08T07:44:53;7.20;99.90
48860;DHT22;34679;51.436;-2.518;2024-03-08T07:47:18;7.00;99.90
48860;DHT22;34679;51.436;-2.518;2024-03-08T07:49:44;7.00;99.90
48860;DHT22;34679;51.436;-2.518;2024-03-08T07:52:10;7.00;99.90
48860;DHT22;34679;51.436;-2.518;2024-03-08T07:54:41;6.90;99.90
48860;DHT22;34679;51.436;-2.518;2024-03-08T07:57:08;6.90;99.90
48860;DHT22;34679;51.436;-2.518;2024-03-08T08:03:05;7.30;99.90
48860;DHT22;34679;51.436;-2.518;2024-03-08T08:25:43;8.40;99.90
48860;DHT22;34679;51.436;-2.518;2024-03-08T08:28:08;8.60;99.90
48860;DHT22;34679;51.436;-2.518;2024-03-08T08:30:34;8.40;99.90
48860;DHT22;34679;51.436;-2.518;2024-03-08T08:33:00;8.10;99.90
48860;DHT22;34679;51.436;-2.518;2024-03-08T08:35:26;7.80;99.90
48860;DHT22;34679;51.436;-2.518;2024-03-08T08:37:52;7.70;99.90
48860;DHT22;34679;51.436;-2.518;2024-03-08T08:40:18;7.60;99.90
48860;DHT22;34679;51.436;-2.518;2024-03-08T08:42:44;7.70;99.90
48860;DHT22;34679;51.436;-2.518;2024-03-08T08:45:11;7.80;99.90
48860;DHT22;34679;51.436;-2.518;2024-03-08T08:47:37;7.70;99.90
48860;DHT22;34679;51.436;-2.518;2024-03-08T08:50:03;8.00;99.90
48860;DHT22;34679;51.436;-2.518;2024-03-08T08:52:32;7.80;99.90
48860;DHT22;34679;51.436;-2.518;2024-03-08T08:54:58;7.80;99.90
48860;DHT22;34679;51.436;-2.518;2024-03-08T08:57:23;7.80;99.90
48860;DHT22;34679;51.436;-2.518;2024-03-08T08:59:49;7.90;99.90
48860;DHT22;34679;51.436;-2.518;2024-03-08T09:02:15;7.80;99.90
48860;DHT22;34679;51.436;-2.518;2024-03-08T09:04:42;7.70;99.90
48860;DHT22;34679;51.436;-2.518;2024-03-08T09:07:09;7.30;99.90
48860;DHT22;34679;51.436;-2.518;2024-03-08T09:09:34;7.60;99.90
48860;DHT22;34679;51.436;-2.518;2024-03-08T09:12:01;7.60;99.90
48860;DHT22;34679;51.436;-2.518;2024-03-08T09:14:26;7.90;99.90
48860;DHT22;34679;51.436;-2.518;2024-03-08T09:16:52;8.00;99.90
48860;DHT22;34679;51.436;-2.518;2024-03-08T09:19:18;8.20;99.90
48860;DHT22;34679;51.436;-2.518;2024-03-08T09:21:45;8.50;99.90
48860;DHT22;34679;51.436;-2.518;2024-03-08T09:24:10;8.80;99.90
48860;DHT22;34679;51.436;-2.518;2024-03-08T09:26:37;8.80;99.90
48860;DHT22;34679;51.436;-2.518;2024-03-08T09:29:03;8.50;99.90
48860;DHT22;34679;51.436;-2.518;2024-03-08T09:31:30;8.60;99.90
48860;DHT22;34679;51.436;-2.518;2024-03-08T09:33:56;8.50;99.90
48860;DHT22;34679;51.436;-2.518;2024-03-08T09:36:22;8.80;99.90
48860;DHT22;34679;51.436;-2.518;2024-03-08T09:38:50;9.10;99.90
48860;DHT22;34679;51.436;-2.518;2024-03-08T09:41:16;9.10;99.90
48860;DHT22;34679;51.436;-2.518;2024-03-08T09:43:43;9.20;99.90
48860;DHT22;34679;51.436;-2.518;2024-03-08T09:46:09;9.50;99.90
48860;DHT22;34679;51.436;-2.518;2024-03-08T09:48:36;9.60;99.90
48860;DHT22;34679;51.436;-2.518;2024-03-08T09:54:25;9.30;99.90
48860;DHT22;34679;51.436;-2.518;2024-03-08T09:56:52;9.40;99.90
48860;DHT22;34679;51.436;-2.518;2024-03-08T09:59:18;9.70;99.90
48860;DHT22;34679;51.436;-2.518;2024-03-08T10:01:53;9.70;99.90
48860;DHT22;34679;51.436;-2.518;2024-03-08T10:04:24;9.50;99.90
48860;DHT22;34679;51.436;-2.518;2024-03-08T10:06:51;9.40;99.90
48860;DHT22;34679;51.436;-2.518;2024-03-08T10:09:17;9.40;99.90
48860;DHT22;34679;51.436;-2.518;2024-03-08T10:11:44;9.70;99.90
48860;DHT22;34679;51.436;-2.518;2024-03-08T10:14:11;10.00;99.90
48860;DHT22;34679;51.436;-2.518;2024-03-08T10:16:38;10.20;99.90
48860;DHT22;34679;51.436;-2.518;2024-03-08T10:19:05;10.10;99.90
48860;DHT22;34679;51.436;-2.518;2024-03-08T10:21:32;10.00;99.90
48860;DHT22;34679;51.436;-2.518;2024-03-08T10:24:03;10.30;99.90
48860;DHT22;34679;51.436;-2.518;2024-03-08T10:26:30;10.30;99.90
48860;DHT22;34679;51.436;-2.518;2024-03-08T10:28:56;10.50;99.90
48860;DHT22;34679;51.436;-2.518;2024-03-08T10:31:23;10.30;99.90
48860;DHT22;34679;51.436;-2.518;2024-03-08T10:33:49;10.00;99.90
48860;DHT22;34679;51.436;-2.518;2024-03-08T10:36:15;10.10;99.90
48860;DHT22;34679;51.436;-2.518;2024-03-08T10:38:42;9.90;99.90
48860;DHT22;34679;51.436;-2.518;2024-03-08T10:41:12;9.90;99.90
48860;DHT22;34679;51.436;-2.518;2024-03-08T10:46:51;10.20;99.90
48860;DHT22;34679;51.436;-2.518;2024-03-08T10:49:27;10.50;99.90
48860;DHT22;34679;51.436;-2.518;2024-03-08T10:51:54;10.20;99.90
48860;DHT22;34679;51.436;-2.518;2024-03-08T10:54:21;10.00;99.90
48860;DHT22;34679;51.436;-2.518;2024-03-08T10:56:48;9.80;99.90
48860;DHT22;34679;51.436;-2.518;2024-03-08T10:59:17;9.70;99.90
48860;DHT22;34679;51.436;-2.518;2024-03-08T11:01:44;9.70;99.90
48860;DHT22;34679;51.436;-2.518;2024-03-08T11:04:10;9.70;99.90
48860;DHT22;34679;51.436;-2.518;2024-03-08T11:06:42;9.80;99.90
48860;DHT22;34679;51.436;-2.518;2024-03-08T11:09:30;9.80;99.90
48860;DHT22;34679;51.436;-2.518;2024-03-08T11:12:25;9.70;99.90
48860;DHT22;34679;51.436;-2.518;2024-03-08T11:14:53;9.80;99.90
48860;DHT22;34679;51.436;-2.518;2024-03-08T11:20:13;10.10;99.90
48860;DHT22;34679;51.436;-2.518;2024-03-08T11:22:53;10.20;99.90
48860;DHT22;34679;51.436;-2.518;2024-03-08T11:25:40;10.20;99.90
48860;DHT22;34679;51.436;-2.518;2024-03-08T11:28:33;10.40;99.90
48860;DHT22;34679;51.436;-2.518;2024-03-08T11:33:27;10.10;99.90
48860;DHT22;34679;51.436;-2.518;2024-03-08T11:36:13;10.40;99.90
48860;DHT22;34679;51.436;-2.518;2024-03-08T11:38:49;10.40;99.90
48860;DHT22;34679;51.436;-2.518;2024-03-08T11:41:21;10.30;99.90
48860;DHT22;34679;51.436;-2.518;2024-03-08T11:43:49;10.40;99.90
48860;DHT22;34679;51.436;-2.518;2024-03-08T11:46:16;10.60;99.90
48860;DHT22;34679;51.436;-2.518;2024-03-08T11:48:44;10.70;99.90
48860;DHT22;34679;51.436;-2.518;2024-03-08T11:51:14;10.60;99.90
48860;DHT22;34679;51.436;-2.518;2024-03-08T11:53:41;10.50;99.90
48860;DHT22;34679;51.436;-2.518;2024-03-08T11:56:08;10.40;99.90
48860;DHT22;34679;51.436;-2.518;2024-03-08T11:58:34;10.30;99.90
48860;DHT22;34679;51.436;-2.518;2024-03-08T12:01:10;10.30;99.90
48860;DHT22;34679;51.436;-2.518;2024-03-08T12:03:42;10.30;99.90
48860;DHT22;34679;51.436;-2.518;2024-03-08T12:06:11;10.40;99.90
48860;DHT22;34679;51.436;-2.518;2024-03-08T12:08:39;10.30;99.90
48860;DHT22;34679;51.436;-2.518;2024-03-08T12:11:05;10.40;99.90
48860;DHT22;34679;51.436;-2.518;2024-03-08T12:13:32;8.90;99.90
48860;DHT22;34679;51.436;-2.518;2024-03-08T12:16:00;10.60;99.90
48860;DHT22;34679;51.436;-2.518;2024-03-08T12:18:26;10.80;99.90
48860;DHT22;34679;51.436;-2.518;2024-03-08T12:21:13;10.90;99.90
48860;DHT22;34679;51.436;-2.518;2024-03-08T12:23:43;11.20;99.90
48860;DHT22;34679;51.436;-2.518;2024-03-08T12:26:14;11.30;99.90
48860;DHT22;34679;51.436;-2.518;2024-03-08T12:28:42;11.40;99.90
48860;DHT22;34679;51.436;-2.518;2024-03-08T12:31:11;11.60;99.90
48860;DHT22;34679;51.436;-2.518;2024-03-08T12:33:49;11.50;99.90
48860;DHT22;34679;51.436;-2.518;2024-03-08T12:36:16;11.40;99.90
48860;DHT22;34679;51.436;-2.518;2024-03-08T12:38:49;11.30;99.90
48860;DHT22;34679;51.436;-2.518;2024-03-08T12:41:19;11.10;99.90
48860;DHT22;34679;51.436;-2.518;2024-03-08T12:43:45;11.00;99.90
48860;DHT22;34679;51.436;-2.518;2024-03-08T12:46:17;11.20;99.90
48860;DHT22;34679;51.436;-2.518;2024-03-08T12:48:43;11.40;99.90
48860;DHT22;34679;51.436;-2.518;2024-03-08T12:51:16;11.50;99.90
48860;DHT22;34679;51.436;-2.518;2024-03-08T12:53:43;10.30;99.90
48860;DHT22;34679;51.436;-2.518;2024-03-08T12:56:10;11.80;99.90
48860;DHT22;34679;51.436;-2.518;2024-03-08T12:58:37;11.80;99.90
48860;DHT22;34679;51.436;-2.518;2024-03-08T13:01:04;11.80;99.90
48860;DHT22;34679;51.436;-2.518;2024-03-08T13:03:36;11.80;99.90
48860;DHT22;34679;51.436;-2.518;2024-03-08T13:06:03;11.80;99.90
48860;DHT22;34679;51.436;-2.518;2024-03-08T13:08:37;11.80;99.90
48860;DHT22;34679;51.436;-2.518;2024-03-08T13:11:07;11.90;99.90
48860;DHT22;34679;51.436;-2.518;2024-03-08T13:13:33;11.80;99.90
48860;DHT22;34679;51.436;-2.518;2024-03-08T13:16:04;11.70;99.90
48860;DHT22;34679;51.436;-2.518;2024-03-08T13:18:34;11.80;99.90
48860;DHT22;34679;51.436;-2.518;2024-03-08T13:20:59;12.00;99.90
48860;DHT22;34679;51.436;-2.518;2024-03-08T13:23:30;12.10;99.90
48860;DHT22;34679;51.436;-2.518;2024-03-08T13:25:56;11.90;99.90
48860;DHT22;34679;51.436;-2.518;2024-03-08T13:28:25;12.10;99.90
48860;DHT22;34679;51.436;-2.518;2024-03-08T13:30:55;12.10;99.90
48860;DHT22;34679;51.436;-2.518;2024-03-08T13:33:23;12.10;99.90
48860;DHT22;34679;51.436;-2.518;2024-03-08T13:35:49;12.20;99.90
48860;DHT22;34679;51.436;-2.518;2024-03-08T13:38:16;12.00;99.90
48860;DHT22;34679;51.436;-2.518;2024-03-08T13:40:48;11.90;99.90
48860;DHT22;34679;51.436;-2.518;2024-03-08T13:43:14;11.90;99.90
48860;DHT22;34679;51.436;-2.518;2024-03-08T13:45:40;11.90;99.90
48860;DHT22;34679;51.436;-2.518;2024-03-08T13:48:09;11.90;99.90
48860;DHT22;34679;51.436;-2.518;2024-03-08T13:50:38;11.80;99.90
48860;DHT22;34679;51.436;-2.518;2024-03-08T13:53:05;11.70;99.90
48860;DHT22;34679;51.436;-2.518;2024-03-08T13:55:30;11.50;99.90
48860;DHT22;34679;51.436;-2.518;2024-03-08T13:57:57;11.50;99.90
48860;DHT22;34679;51.436;-2.518;2024-03-08T14:00:22;11.40;99.90
48860;DHT22;34679;51.436;-2.518;2024-03-08T14:02:51;11.50;99.90
48860;DHT22;34679;51.436;-2.518;2024-03-08T14:05:16;11.40;99.90
48860;DHT22;34679;51.436;-2.518;2024-03-08T14:07:45;11.40;99.90
48860;DHT22;34679;51.436;-2.518;2024-03-08T14:10:14;11.50;99.90
48860;DHT22;34679;51.436;-2.518;2024-03-08T14:12:40;11.60;99.90
48860;DHT22;34679;51.436;-2.518;2024-03-08T14:15:08;11.60;99.90
48860;DHT22;34679;51.436;-2.518;2024-03-08T14:17:35;11.70;99.90
48860;DHT22;34679;51.436;-2.518;2024-03-08T14:20:01;11.80;99.90
48860;DHT22;34679;51.436;-2.518;2024-03-08T14:22:27;11.80;99.90
48860;DHT22;34679;51.436;-2.518;2024-03-08T14:24:53;11.90;99.90
48860;DHT22;34679;51.436;-2.518;2024-03-08T14:27:21;12.00;99.90
48860;DHT22;34679;51.436;-2.518;2024-03-08T14:29:48;12.10;99.90
48860;DHT22;34679;51.436;-2.518;2024-03-08T14:32:17;11.40;99.90
48860;DHT22;34679;51.436;-2.518;2024-03-08T14:34:45;12.10;99.90
48860;DHT22;34679;51.436;-2.518;2024-03-08T14:37:14;12.20;99.90
48860;DHT22;34679;51.436;-2.518;2024-03-08T14:39:44;12.30;99.90
48860;DHT22;34679;51.436;-2.518;2024-03-08T14:42:13;12.40;99.90
48860;DHT22;34679;51.436;-2.518;2024-03-08T14:44:45;12.30;99.90
48860;DHT22;34679;51.436;-2.518;2024-03-08T14:47:17;12.20;99.90
48860;DHT22;34679;51.436;-2.518;2024-03-08T14:49:43;11.90;99.90
48860;DHT22;34679;51.436;-2.518;2024-03-08T14:52:09;11.90;99.90
48860;DHT22;34679;51.436;-2.518;2024-03-08T14:54:56;11.90;99.90
48860;DHT22;34679;51.436;-2.518;2024-03-08T14:57:24;11.80;99.90
48860;DHT22;34679;51.436;-2.518;2024-03-08T14:59:49;11.90;99.90
48860;DHT22;34679;51.436;-2.518;2024-03-08T15:02:15;11.90;99.90
48860;DHT22;34679;51.436;-2.518;2024-03-08T15:04:46;12.10;99.90
48860;DHT22;34679;51.436;-2.518;2024-03-08T15:07:23;12.00;99.90
48860;DHT22;34679;51.436;-2.518;2024-03-08T15:09:49;11.90;99.90
48860;DHT22;34679;51.436;-2.518;2024-03-08T15:12:15;11.80;99.90
48860;DHT22;34679;51.436;-2.518;2024-03-08T15:14:45;11.70;99.90
48860;DHT22;34679;51.436;-2.518;2024-03-08T15:17:11;11.70;99.90
48860;DHT22;34679;51.436;-2.518;2024-03-08T15:19:49;11.70;99.90
48860;DHT22;34679;51.436;-2.518;2024-03-08T15:22:15;11.70;99.90
48860;DHT22;34679;51.436;-2.518;2024-03-08T15:24:43;11.60;99.90
48860;DHT22;34679;51.436;-2.518;2024-03-08T15:27:09;11.60;99.90
48860;DHT22;34679;51.436;-2.518;2024-03-08T15:29:35;11.70;99.90
48860;DHT22;34679;51.436;-2.518;2024-03-08T15:32:02;11.60;99.90
48860;DHT22;34679;51.436;-2.518;2024-03-08T15:34:29;11.50;99.90
48860;DHT22;34679;51.436;-2.518;2024-03-08T15:36:57;11.50;99.90
48860;DHT22;34679;51.436;-2.518;2024-03-08T15:39:27;11.60;99.90
48860;DHT22;34679;51.436;-2.518;2024-03-08T15:41:53;11.60;99.90
48860;DHT22;34679;51.436;-2.518;2024-03-08T15:44:20;11.60;99.90
48860;DHT22;34679;51.436;-2.518;2024-03-08T15:46:46;11.70;99.90
48860;DHT22;34679;51.436;-2.518;2024-03-08T15:49:12;11.60;99.90
48860;DHT22;34679;51.436;-2.518;2024-03-08T15:51:39;11.70;99.90
48860;DHT22;34679;51.436;-2.518;2024-03-08T15:54:09;11.70;99.90
48860;DHT22;34679;51.436;-2.518;2024-03-08T15:56:35;11.60;99.90
48860;DHT22;34679;51.436;-2.518;2024-03-08T15:59:01;11.60;99.90
48860;DHT22;34679;51.436;-2.518;2024-03-08T16:01:32;11.50;99.90
48860;DHT22;34679;51.436;-2.518;2024-03-08T16:03:58;11.50;99.90
48860;DHT22;34679;51.436;-2.518;2024-03-08T16:06:24;11.50;99.90
48860;DHT22;34679;51.436;-2.518;2024-03-08T16:08:53;11.50;99.90
48860;DHT22;34679;51.436;-2.518;2024-03-08T16:11:19;11.50;99.90
48860;DHT22;34679;51.436;-2.518;2024-03-08T16:13:47;11.40;99.90
48860;DHT22;34679;51.436;-2.518;2024-03-08T16:16:12;10.30;99.90
48860;DHT22;34679;51.436;-2.518;2024-03-08T16:18:38;11.40;99.90
48860;DHT22;34679;51.436;-2.518;2024-03-08T16:23:40;11.30;99.90
48860;DHT22;34679;51.436;-2.518;2024-03-08T16:26:06;11.40;99.90
48860;DHT22;34679;51.436;-2.518;2024-03-08T16:28:32;11.20;99.90
48860;DHT22;34679;51.436;-2.518;2024-03-08T16:31:07;11.10;99.90
48860;DHT22;34679;51.436;-2.518;2024-03-08T16:33:35;11.10;99.90
48860;DHT22;34679;51.436;-2.518;2024-03-08T16:36:01;10.30;99.90
48860;DHT22;34679;51.436;-2.518;2024-03-08T16:38:28;11.10;99.90
48860;DHT22;34679;51.436;-2.518;2024-03-08T16:40:54;11.00;99.90
48860;DHT22;34679;51.436;-2.518;2024-03-08T16:43:26;11.00;99.90
48860;DHT22;34679;51.436;-2.518;2024-03-08T16:45:52;11.00;99.90
48860;DHT22;34679;51.436;-2.518;2024-03-08T16:48:18;10.90;99.90
48860;DHT22;34679;51.436;-2.518;2024-03-08T16:50:45;10.80;99.90
48860;DHT22;34679;51.436;-2.518;2024-03-08T16:53:11;10.80;99.90
48860;DHT22;34679;51.436;-2.518;2024-03-08T16:55:37;10.80;99.90
48860;DHT22;34679;51.436;-2.518;2024-03-08T16:58:06;10.70;99.90
48860;DHT22;34679;51.436;-2.518;2024-03-08T17:00:34;9.80;99.90
48860;DHT22;34679;51.436;-2.518;2024-03-08T17:03:01;10.50;99.90
48860;DHT22;34679;51.436;-2.518;2024-03-08T17:05:28;10.60;99.90
48860;DHT22;34679;51.436;-2.518;2024-03-08T17:07:58;10.60;99.90
48860;DHT22;34679;51.436;-2.518;2024-03-08T17:12:53;10.40;99.90
48860;DHT22;34679;51.436;-2.518;2024-03-08T17:15:23;10.40;99.90
48860;DHT22;34679;51.436;-2.518;2024-03-08T17:17:51;10.40;99.90
48860;DHT22;34679;51.436;-2.518;2024-03-08T17:20:19;10.20;99.90
48860;DHT22;34679;51.436;-2.518;2024-03-08T17:22:49;10.20;99.90
48860;DHT22;34679;51.436;-2.518;2024-03-08T17:25:15;10.10;99.90
48860;DHT22;34679;51.436;-2.518;2024-03-08T17:27:42;10.10;99.90
48860;DHT22;34679;51.436;-2.518;2024-03-08T17:30:11;10.10;99.90
48860;DHT22;34679;51.436;-2.518;2024-03-08T17:33:12;10.00;99.90
48860;DHT22;34679;51.436;-2.518;2024-03-08T17:35:44;9.90;99.90
48860;DHT22;34679;51.436;-2.518;2024-03-08T17:42:10;9.70;99.90
48860;DHT22;34679;51.436;-2.518;2024-03-08T17:51:42;9.60;99.90
48860;DHT22;34679;51.436;-2.518;2024-03-08T17:54:30;9.50;99.90
48860;DHT22;34679;51.436;-2.518;2024-03-08T17:57:00;9.40;99.90
48860;DHT22;34679;51.436;-2.518;2024-03-08T17:59:26;9.40;99.90
48860;DHT22;34679;51.436;-2.518;2024-03-08T18:01:53;9.30;99.90
48860;DHT22;34679;51.436;-2.518;2024-03-08T18:04:20;9.30;99.90
48860;DHT22;34679;51.436;-2.518;2024-03-08T18:06:47;9.20;99.90
48860;DHT22;34679;51.436;-2.518;2024-03-08T18:09:13;7.40;99.90
48860;DHT22;34679;51.436;-2.518;2024-03-08T18:11:39;9.20;99.90
48860;DHT22;34679;51.436;-2.518;2024-03-08T18:14:06;9.10;99.90
48860;DHT22;34679;51.436;-2.518;2024-03-08T18:16:39;9.10;99.90
48860;DHT22;34679;51.436;-2.518;2024-03-08T18:19:07;9.00;99.90
48860;DHT22;34679;51.436;-2.518;2024-03-08T18:21:36;9.00;99.90
48860;DHT22;34679;51.436;-2.518;2024-03-08T18:24:05;8.80;99.90
48860;DHT22;34679;51.436;-2.518;2024-03-08T18:26:32;8.80;99.90
48860;DHT22;34679;51.436;-2.518;2024-03-08T18:29:02;8.70;99.90
48860;DHT22;34679;51.436;-2.518;2024-03-08T18:31:35;8.70;99.90
48860;DHT22;34679;51.436;-2.518;2024-03-08T18:34:01;8.70;99.90
48860;DHT22;34679;51.436;-2.518;2024-03-08T18:36:30;8.60;99.90
48860;DHT22;34679;51.436;-2.518;2024-03-08T18:39:01;8.60;99.90
48860;DHT22;34679;51.436;-2.518;2024-03-08T18:41:29;8.20;99.90
48860;DHT22;34679;51.436;-2.518;2024-03-08T18:44:02;8.50;99.90
48860;DHT22;34679;51.436;-2.518;2024-03-08T18:46:29;8.50;99.90
48860;DHT22;34679;51.436;-2.518;2024-03-08T18:48:58;8.50;99.90
48860;DHT22;34679;51.436;-2.518;2024-03-08T18:51:25;8.40;99.90
48860;DHT22;34679;51.436;-2.518;2024-03-08T18:53:51;8.40;99.90